Latest Weather Observations for Lajamanu

IDD60801

Issued at 10:51 pm CST Tuesday 18 June 2024 (issued every 10 minutes, with the page automatically refreshed every 10 minutes)

About weather observations | Map of weather stations | Latest weather observations for NT | Other Formats
Station Details ID: 014829 Name: LAJAMANU AIRPORT Lat: -18.33 Lon: 130.64 Height: 315.6 m
Data from the previous 72 hours. | See also: Recent months at Lajamanu
Date/Time
CST
Temp
°C
App
Temp
°C
Dew
Point
°C
Rel
Hum
%
Delta-T
°C
Wind Press
QNH
hPa
Press
MSL
hPa
Rain since
9am
mm
Dir  Spd
km/h
Gust
km/h
Spd
kts
Gust
kts
18/10:30pm 17.7 14.8 8.3 54 4.9 ENE 13 15 7 8 1017.1 1016.2 0.0
18/10:00pm 16.1 15.3 8.1 59 4.1 SE 2 7 1 4 1017.3 1016.4 0.0
18/09:30pm 17.0 15.2 7.9 55 4.7 SE 7 9 4 5 1017.4 1016.5 0.0
18/09:00pm 17.6 15.9 8.2 54 4.9 SE 7 9 4 5 1017.2 1016.3 0.0
18/08:30pm 18.4 16.7 8.4 52 5.2 SE 7 9 4 5 1016.9 1016.0 0.0
18/08:00pm 18.7 16.6 8.4 51 5.4 SE 9 11 5 6 1016.6 1015.7 0.0
18/07:30pm 19.6 17.5 8.3 48 5.9 SE 9 11 5 6 1016.3 1015.4 0.0
18/07:00pm 20.4 18.3 8.4 46 6.4 SE 9 11 5 6 1016.2 1015.3 0.0
18/06:30pm 22.6 20.9 8.3 40 7.7 SE 7 9 4 5 1015.8 1015.0 0.0
18/06:00pm 25.8 23.8 8.8 34 9.3 ESE 9 11 5 6 1015.4 1014.5 0.0
18/05:30pm 27.3 24.7 7.7 29 10.7 E 11 17 6 9 1015.2 1014.3 0.0
18/05:00pm 28.3 25.4 8.1 28 11.1 ESE 13 17 7 9 1015.2 1014.3 0.0
18/04:30pm 28.6 25.5 7.2 26 11.6 ESE 13 20 7 11 1015.2 1014.3 0.0
18/04:00pm 28.6 25.0 6.7 25 11.8 ESE 15 26 8 14 1015.1 1014.2 0.0
18/03:30pm 29.0 26.0 7.6 26 11.7 ESE 13 20 7 11 1015.2 1014.3 0.0
18/03:00pm 28.9 26.4 8.0 27 11.5 E 11 20 6 11 1015.4 1014.5 0.0
18/02:30pm 28.4 25.0 7.6 27 11.4 E 15 24 8 13 1015.8 1015.0 0.0
18/02:00pm 28.6 25.0 8.3 28 11.2 ESE 17 26 9 14 1016.5 1015.6 0.0
18/01:30pm 28.1 24.9 8.4 29 10.9 E 15 22 8 12 1016.9 1016.0 0.0
18/01:00pm 27.6 23.9 8.0 29 10.7 E 17 26 9 14 1017.6 1016.7 0.0
18/12:30pm 27.1 23.0 8.0 30 10.4 E 19 26 10 14 1018.2 1017.3 0.0
18/12:00pm 26.8 23.3 8.7 32 10.0 E 17 26 9 14 1019.0 1018.2 0.0
18/11:30am 25.9 22.2 8.0 32 9.7 ENE 17 24 9 13 1019.7 1018.8 0.0
18/11:00am 24.8 21.0 7.4 33 9.3 E 17 26 9 14 1020.2 1019.3 0.0
18/10:30am 24.1 20.1 8.1 36 8.6 ENE 19 26 10 14 1020.7 1019.8 0.0
18/10:00am 22.9 19.4 8.6 40 7.7 E 17 22 9 12 1020.7 1019.8 0.0
18/09:30am 20.8 19.6 10.3 51 5.8 E 7 11 4 6 1020.6 1019.7 0.0
18/09:00am 17.1 17.1 9.8 62 3.9 CALM 0 0 0 0 1020.3 1019.4 0.0
18/08:30am 14.2 14.2 9.8 75 2.3 CALM 0 0 0 0 1020.1 1019.2 0.0
18/08:00am 10.8 10.4 8.4 85 1.2 CALM 0 0 0 0 1019.8 1018.9 0.0
18/07:30am 9.1 8.5 7.4 89 0.8 CALM 0 0 0 0 1019.5 1018.6 0.0
18/07:00am 9.3 8.6 6.9 85 1.1 CALM 0 0 0 0 1019.2 1018.4 0.0
18/06:30am 10.1 9.5 7.3 83 1.4 CALM 0 0 0 0 1018.9 1018.1 0.0
18/06:00am 10.3 9.8 7.7 84 1.3 CALM 0 4 0 2 1018.5 1017.7 0.0
18/05:30am 10.2 9.6 7.3 82 1.4 CALM 0 0 0 0 1018.2 1017.3 0.0
18/05:00am 11.4 9.5 7.7 78 1.8 SE 7 9 4 5 1018.1 1017.2 0.0
18/04:30am 11.8 9.9 7.7 76 2.0 SE 7 9 4 5 1018.0 1017.1 0.0
18/04:00am 10.7 10.2 7.8 82 1.4 CALM 0 0 0 0 1017.9 1017.0 0.0
18/03:30am 10.9 10.3 7.6 80 1.6 CALM 0 0 0 0 1017.8 1016.9 0.0
18/03:00am 10.6 10.0 7.5 81 1.5 CALM 0 0 0 0 1018.0 1017.1 0.0
18/02:30am 11.4 10.8 7.5 77 1.9 CALM 0 0 0 0 1017.9 1017.0 0.0
18/02:00am 12.1 11.6 7.8 75 2.1 CALM 0 0 0 0 1018.2 1017.3 0.0
18/01:30am 12.5 11.9 7.6 72 2.4 CALM 0 0 0 0 1018.5 1017.7 0.0
18/01:00am 12.4 11.8 7.5 72 2.4 CALM 0 0 0 0 1018.6 1017.8 0.0
18/12:30am 12.8 12.2 7.5 70 2.6 CALM 0 0 0 0 1018.4 1017.6 0.0
18/12:00am 13.2 12.6 7.4 68 2.9 CALM 0 6 0 3 1018.7 1017.9 0.0
 
Date/Time
CST
Temp
°C
App
Temp
°C
Dew
Point
°C
Rel
Hum
%
Delta-T
°C
Wind Press
QNH
hPa
Press
MSL
hPa
Rain since
9am
mm
Dir  Spd
km/h
Gust
km/h
Spd
kts
Gust
kts
17/11:30pm 13.3 12.7 7.5 68 2.9 CALM 0 0 0 0 1018.8 1018.0 0.0
17/11:00pm 14.5 13.5 7.3 62 3.6 ESE 2 6 1 3 1018.7 1017.9 0.0
17/10:30pm 16.1 14.3 7.3 56 4.4 ESE 6 7 3 4 1018.6 1017.8 0.0
17/10:00pm 16.7 15.0 7.4 54 4.7 SE 6 7 3 4 1018.4 1017.6 0.0
17/09:30pm 16.4 14.6 7.3 55 4.6 SE 6 7 3 4 1018.5 1017.7 0.0
17/09:00pm 17.2 15.2 7.3 52 5.0 ESE 7 9 4 5 1018.3 1017.5 0.0
17/08:30pm 17.7 15.8 7.4 51 5.3 ESE 7 9 4 5 1018.1 1017.2 0.0
17/08:00pm 18.5 16.6 7.6 49 5.6 ESE 7 9 4 5 1017.9 1017.0 0.0
17/07:30pm 19.4 17.6 7.8 47 6.0 ESE 7 9 4 5 1017.5 1016.6 0.0
17/07:00pm 20.1 17.9 7.8 45 6.4 ESE 9 11 5 6 1017.2 1016.3 0.0
17/06:30pm 22.1 19.8 7.5 39 7.7 ESE 9 11 5 6 1017.0 1016.1 0.0
17/06:00pm 25.2 22.5 7.3 32 9.6 E 11 15 6 8 1016.8 1015.9 0.0
17/05:30pm 26.9 22.8 6.3 27 10.9 ESE 17 22 9 12 1016.4 1015.5 0.0
17/05:00pm 27.8 23.7 6.0 25 11.6 ESE 17 26 9 14 1016.4 1015.5 0.0
17/04:30pm 28.0 23.4 5.6 24 11.8 E 19 24 10 13 1016.5 1015.6 0.0
17/04:00pm 28.8 24.6 5.6 23 12.3 ESE 17 24 9 13 1016.5 1015.6 0.0
17/03:30pm 28.7 23.8 4.2 21 12.6 ESE 19 26 10 14 1016.6 1015.7 0.0
17/03:00pm 29.0 24.3 5.1 22 12.5 E 19 30 10 16 1017.0 1016.1 0.0
17/02:30pm 28.7 23.9 4.9 22 12.4 E 19 30 10 16 1017.4 1016.5 0.0
17/02:00pm 28.3 23.6 5.2 23 12.1 ESE 19 26 10 14 1017.9 1017.0 0.0
17/01:30pm 28.1 23.1 3.7 21 12.4 E 19 32 10 17 1018.4 1017.6 0.0
17/01:00pm 27.7 22.8 5.3 24 11.7 ESE 20 26 11 14 1018.9 1018.1 0.0
17/12:30pm 27.1 22.1 6.5 27 10.9 E 22 35 12 19 1019.6 1018.7 0.0
17/12:00pm 26.7 22.3 6.7 28 10.6 E 19 26 10 14 1020.1 1019.2 0.0
17/11:30am 25.4 20.4 6.6 30 9.9 E 22 30 12 16 1020.7 1019.8 0.0
17/11:00am 25.2 21.1 7.8 33 9.4 E 19 28 10 15 1021.0 1020.2 0.0
17/10:30am 23.4 18.9 7.1 35 8.6 E 20 30 11 16 1021.0 1020.2 0.0
17/10:00am 22.3 17.1 7.3 38 7.9 E 24 33 13 18 1021.1 1020.3 0.0
17/09:30am 20.5 16.6 8.5 46 6.4 E 19 26 10 14 1021.1 1020.3 0.0
17/09:00am 18.0 15.9 9.9 59 4.3 E 11 17 6 9 1021.0 1020.2 0.0
17/08:30am 15.7 14.6 9.8 68 3.1 E 6 11 3 6 1020.7 1019.8 0.0
17/08:00am 11.0 9.5 8.4 84 1.3 ESE 6 7 3 4 1020.5 1019.6 0.0
17/07:30am 10.1 8.2 7.7 85 1.2 ESE 7 9 4 5 1020.1 1019.2 0.0
17/07:00am 11.0 8.8 7.9 81 1.5 ESE 9 9 5 5 1019.9 1019.0 0.0
17/06:30am 11.0 8.4 7.9 81 1.5 ESE 11 13 6 7 1019.6 1018.7 0.0
17/06:00am 10.3 8.0 7.5 83 1.4 ESE 9 11 5 6 1019.1 1018.3 0.0
17/05:30am 11.4 9.3 8.3 81 1.5 ESE 9 11 5 6 1018.9 1018.1 0.0
17/05:00am 11.0 8.9 8.4 84 1.3 ESE 9 11 5 6 1018.8 1018.0 0.0
17/04:30am 9.6 9.0 7.2 85 1.2 CALM 0 0 0 0 1018.8 1018.0 0.0
17/04:00am 10.4 9.7 7.1 80 1.6 CALM 0 0 0 0 1018.9 1018.1 0.0
17/03:30am 12.0 10.1 7.7 75 2.1 E 7 9 4 5 1018.8 1018.0 0.0
17/03:00am 12.1 10.0 8.2 77 1.9 ESE 9 9 5 5 1018.8 1018.0 0.0
17/02:30am 11.9 10.2 7.6 75 2.1 SE 6 9 3 5 1018.7 1017.9 0.0
17/02:00am 13.4 11.6 8.0 70 2.7 ESE 7 9 4 5 1018.7 1017.9 0.0
17/01:30am 13.1 10.9 8.0 71 2.6 ESE 9 9 5 5 1018.7 1017.9 0.0
17/01:00am 13.8 11.6 8.0 68 2.9 ESE 9 9 5 5 1018.7 1017.9 0.0
17/12:30am 14.2 12.5 8.2 67 3.0 SE 7 9 4 5 1018.8 1018.0 0.0
17/12:00am 15.0 13.3 8.5 65 3.3 ESE 7 9 4 5 1018.9 1018.1 0.0
 
Date/Time
CST
Temp
°C
App
Temp
°C
Dew
Point
°C
Rel
Hum
%
Delta-T
°C
Wind Press
QNH
hPa
Press
MSL
hPa
Rain since
9am
mm
Dir  Spd
km/h
Gust
km/h
Spd
kts
Gust
kts
16/11:30pm 15.1 13.3 8.1 63 3.6 ESE 7 9 4 5 1019.0 1018.2 0.0
16/11:00pm 15.6 13.5 8.1 61 3.8 ESE 9 11 5 6 1019.1 1018.3 0.0
16/10:30pm 16.4 14.7 8.4 59 4.1 ESE 7 11 4 6 1019.3 1018.5 0.0
16/10:00pm 16.6 14.6 8.6 59 4.2 ESE 9 11 5 6 1019.5 1018.6 0.0
16/09:30pm 17.2 15.3 8.9 58 4.3 ESE 9 11 5 6 1019.2 1018.4 0.0
16/09:00pm 17.5 15.9 8.9 57 4.5 ESE 7 9 4 5 1019.2 1018.4 0.0
16/08:30pm 18.3 16.3 8.8 54 5.0 ESE 9 11 5 6 1019.0 1018.2 0.0
16/08:00pm 19.2 17.3 9.1 52 5.4 ESE 9 11 5 6 1018.8 1018.0 0.0
16/07:30pm 19.8 17.9 9.1 50 5.7 ESE 9 11 5 6 1018.4 1017.6 0.0
16/07:00pm 20.8 18.4 8.8 46 6.4 ESE 11 11 6 6 1018.2 1017.3 0.0
16/06:30pm 22.8 20.9 9.2 42 7.4 SE 9 13 5 7 1018.0 1017.1 0.0
16/06:00pm 25.6 23.7 9.0 35 9.1 ESE 9 11 5 6 1017.8 1016.9 0.0
16/05:30pm 27.5 25.0 8.4 30 10.5 ESE 11 20 6 11 1017.6 1016.7 0.0
16/05:00pm 28.5 26.1 8.7 29 11.0 E 11 15 6 8 1017.3 1016.4 0.0
16/04:30pm 28.9 26.0 8.0 27 11.5 E 13 17 7 9 1017.3 1016.4 0.0
16/04:00pm 29.2 26.3 8.3 27 11.6 ENE 13 20 7 11 1017.4 1016.5 0.0
16/03:30pm 29.4 26.2 8.5 27 11.6 E 15 20 8 11 1017.5 1016.6 0.0
16/03:00pm 29.2 25.7 8.8 28 11.4 ESE 17 24 9 13 1017.6 1016.7 0.0
16/02:30pm 29.3 26.5 8.4 27 11.6 E 13 24 7 13 1017.9 1017.0 0.0
16/02:00pm 28.8 25.6 8.5 28 11.3 E 15 24 8 13 1018.2 1017.3 0.0
16/01:30pm 28.3 25.4 9.6 31 10.5 ENE 15 24 8 13 1018.7 1017.9 0.0
16/01:00pm 28.0 24.5 8.8 30 10.7 E 17 26 9 14 1019.3 1018.5 0.0
16/12:30pm 27.5 24.3 9.8 33 10.0 E 17 24 9 13 1019.8 1018.9 0.0
16/12:00pm 26.7 22.9 9.1 33 9.8 E 19 28 10 15 1020.4 1019.5 0.0
16/11:30am 25.9 22.0 9.3 35 9.2 E 20 30 11 16 1020.7 1019.8 0.0
16/11:00am 25.1 20.8 9.4 37 8.7 E 22 30 12 16 1020.9 1020.0 0.0
16/10:30am 23.6 19.6 9.2 40 7.9 E 20 28 11 15 1021.1 1020.3 0.0
16/10:00am 22.1 18.2 9.6 45 6.8 E 20 28 11 15 1021.1 1020.3 0.0
16/09:30am 20.7 17.3 9.3 48 6.1 E 17 30 9 16 1021.0 1020.2 0.0
16/09:00am 17.4 16.1 10.1 62 3.9 SSE 7 9 4 5 1020.6 1019.7 0.0
16/08:30am 14.4 14.4 9.8 74 2.4 CALM 0 0 0 0 1020.2 1019.3 0.0
16/08:00am 12.3 12.1 9.1 81 1.6 CALM 0 0 0 0 1019.7 1018.8 0.0
16/07:30am 10.0 9.5 7.8 86 1.1 CALM 0 0 0 0 1019.3 1018.5 0.0
16/07:00am 9.7 9.0 7.1 84 1.2 CALM 0 0 0 0 1018.9 1018.1 0.0
16/06:30am 10.2 9.6 7.6 84 1.3 CALM 0 0 0 0 1018.5 1017.7 0.0
16/06:00am 9.5 7.7 7.3 86 1.1 SE 6 7 3 4 1018.0 1017.1 0.0
16/05:30am 10.2 9.6 7.3 82 1.4 CALM 0 0 0 0 1017.6 1016.7 0.0
16/05:00am 10.9 9.3 7.8 81 1.5 SE 6 6 3 3 1017.4 1016.5 0.0
16/04:30am 11.4 9.7 7.5 77 1.9 SE 6 7 3 4 1017.3 1016.4 0.0
16/04:00am 13.0 11.2 7.9 71 2.6 ESE 7 7 4 4 1017.1 1016.2 0.0
16/03:30am 12.8 11.0 7.9 72 2.4 SE 7 9 4 5 1017.0 1016.1 0.0
16/03:00am 12.5 11.0 8.4 76 2.1 SE 6 11 3 6 1017.0 1016.1 0.0
16/02:30am 11.9 11.5 8.2 78 1.8 CALM 0 0 0 0 1017.0 1016.1 0.0
16/02:00am 12.3 11.8 7.8 74 2.2 CALM 0 0 0 0 1016.9 1016.0 0.0
16/01:30am 14.1 12.5 8.1 67 3.0 ESE 6 7 3 4 1017.0 1016.1 0.0
16/01:00am 15.3 13.8 8.5 64 3.5 ESE 6 11 3 6 1017.0 1016.1 0.0
16/12:30am 15.2 13.5 8.2 63 3.6 ESE 7 9 4 5 1017.0 1016.1 0.0
16/12:00am 15.4 13.7 8.2 62 3.7 ESE 7 9 4 5 1017.1 1016.2 0.0
 
Date/Time
CST
Temp
°C
App
Temp
°C
Dew
Point
°C
Rel
Hum
%
Delta-T
°C
Wind Press
QNH
hPa
Press
MSL
hPa
Rain since
9am
mm
Dir  Spd
km/h
Gust
km/h
Spd
kts
Gust
kts
15/11:30pm 15.9 13.7 7.9 59 4.1 ESE 9 11 5 6 1017.1 1016.2 0.0
15/11:00pm 16.4 14.6 7.9 57 4.4 ESE 7 9 4 5 1017.3 1016.4 0.0

Other formats

Comma delimited format used in spreadsheet applications
http://www.bom.gov.au/fwo/IDD60801/IDD60801.94231.axf

JavaScript Object Notation format (JSON) in row-major order
http://www.bom.gov.au/fwo/IDD60801/IDD60801.94231.json

Data quality

Most of these data are generated automatically and are frequently updated. Quality checks on data are not normally performed. It is possible for incorrect values to appear. Refer to information at About Latest Weather Observations and please check the disclaimer before using these data.